KMFE/MFE METAR and TAF weather

Enter ICAO airport designator
Station Type Date Time Source
KMFE METAR 2020/07/06 19:53 UTC NOAA

KMFE 061953Z 16015G22KT 10SM FEW050 36/22 A2985 RMK AO2 SLP105 T03610222


Station Type Date Time Source
KMFE Decoded METAR 2020/07/06 19:53 UTC NOAA

MCALLEN MILLER INTERNATIONAL AIRPORT , TX, United States (KMFE) 26-11N 98-15W 38M
Jul 06, 2020 - 03:53 PM EDT / 2020.07.06 1953 UTC
Wind: from the SSE (160 degrees) at 17 MPH (15 KT) gusting to 25 MPH (22 KT):0
Visibility: 10 mile(s):0
Sky conditions: mostly clear
Temperature: 97.0 F (36.1 C)
Heat index: 105.6 F (40.9 C):1
Dew Point: 72.0 F (22.2 C)
Relative Humidity: 44%
Pressure (altimeter): 29.85 in. Hg (1010 hPa)
ob: KMFE 061953Z 16015G22KT 10SM FEW050 36/22 A2985 RMK AO2 SLP105 T03610222
cycle: 20

Station Type Date Time Source
KMFE TAF 2020/07/06 18:27 UTC NOAA

TAF KMFE 061721Z 0618/0718 14017G24KT P6SM FEW030
FM070300 13013KT P6SM SCT200
FM071400 15015KT P6SM SCT025

Example: see airport list